createdAt,value
2022-09-28T00:01:17.601Z,6.96
2022-09-28T00:03:47.188Z,6.92
2022-09-28T00:06:19.218Z,6.87
2022-09-28T00:08:47.500Z,6.81
2022-09-28T00:11:15.750Z,6.74
2022-09-28T00:13:44.157Z,6.67
2022-09-28T00:16:14.917Z,6.64
2022-09-28T00:18:43.905Z,6.65
2022-09-28T00:21:14.837Z,6.62
2022-09-28T00:24:02.428Z,6.60
2022-09-28T00:26:32.824Z,6.59
2022-09-28T00:29:02.510Z,6.57
2022-09-28T00:31:33.226Z,6.55
2022-09-28T00:34:02.528Z,6.53
2022-09-28T00:36:32.172Z,6.52
2022-09-28T00:39:06.146Z,6.51
2022-09-28T00:41:35.489Z,6.50
2022-09-28T00:44:22.632Z,6.47
2022-09-28T00:47:01.141Z,6.43
2022-09-28T00:49:55.668Z,6.42
2022-09-28T00:52:48.706Z,6.40
2022-09-28T00:55:21.998Z,6.37
2022-09-28T00:57:56.105Z,6.34
2022-09-28T01:00:24.602Z,6.29
2022-09-28T01:02:52.942Z,6.26
2022-09-28T01:05:23.376Z,6.25
2022-09-28T01:07:52.715Z,6.23
2022-09-28T01:10:21.338Z,6.18
2022-09-28T01:12:49.177Z,6.15
2022-09-28T01:15:17.203Z,6.10
2022-09-28T01:17:57.978Z,6.02
2022-09-28T01:21:00.662Z,5.99
2022-09-28T01:23:43.878Z,5.96
2022-09-28T01:26:23.893Z,5.89
2022-09-28T01:29:01.101Z,5.80
2022-09-28T01:31:34.300Z,5.72
2022-09-28T01:34:24.162Z,5.64
2022-09-28T01:36:56.760Z,5.55
2022-09-28T01:39:32.494Z,5.47
2022-09-28T01:42:05.977Z,5.34
2022-09-28T01:44:39.959Z,5.23
2022-09-28T01:47:12.881Z,5.15
2022-09-28T01:49:46.809Z,5.07
2022-09-28T01:52:25.459Z,4.97
2022-09-28T01:55:19.198Z,4.90
2022-09-28T01:58:03.643Z,4.87
2022-09-28T02:00:37.597Z,4.84
2022-09-28T02:03:11.146Z,4.82
2022-09-28T02:06:11.399Z,4.79
2022-09-28T02:08:46.941Z,4.76
2022-09-28T02:11:16.850Z,4.74
2022-09-28T02:14:03.949Z,4.73
2022-09-28T02:16:40.937Z,4.72
2022-09-28T02:19:16.857Z,4.71
2022-09-28T02:22:03.416Z,4.70
2022-09-28T02:24:38.382Z,4.68
2022-09-28T02:27:15.037Z,4.70
2022-09-28T02:29:42.971Z,4.63
2022-09-28T02:32:11.477Z,4.63
2022-09-28T02:34:39.534Z,4.59
2022-09-28T02:37:08.063Z,4.58
2022-09-28T02:39:35.937Z,4.55
2022-09-28T02:42:21.496Z,4.55
2022-09-28T02:45:23.856Z,4.53
2022-09-28T02:48:00.840Z,4.51
2022-09-28T02:50:55.961Z,4.49
2022-09-28T02:53:47.062Z,4.49
2022-09-28T02:56:37.662Z,4.47
2022-09-28T02:59:36.783Z,4.47
2022-09-28T03:02:25.369Z,4.48
2022-09-28T03:05:16.152Z,4.49
2022-09-28T03:07:57.170Z,4.48
2022-09-28T03:10:27.991Z,4.46
2022-09-28T03:12:56.647Z,4.43
2022-09-28T03:15:28.075Z,4.38
2022-09-28T03:17:58.063Z,4.31
2022-09-28T03:20:27.474Z,4.26
2022-09-28T03:23:20.174Z,4.18
2022-09-28T03:25:43.673Z,4.11
2022-09-28T03:28:11.505Z,4.06
2022-09-28T03:30:40.440Z,4.10
2022-09-28T03:33:08.503Z,4.07
2022-09-28T03:35:36.557Z,4.07
2022-09-28T03:38:04.385Z,4.07
2022-09-28T03:40:33.222Z,4.08
2022-09-28T03:43:01.344Z,4.07
2022-09-28T03:45:29.428Z,4.05
2022-09-28T03:47:57.801Z,4.05
2022-09-28T03:50:26.176Z,4.03
2022-09-28T03:52:54.442Z,4.00
2022-09-28T03:55:22.898Z,4.01
2022-09-28T03:57:56.013Z,3.97
2022-09-28T04:00:24.513Z,3.92
2022-09-28T04:02:53.796Z,3.92
2022-09-28T04:05:21.798Z,3.91
2022-09-28T04:07:49.710Z,3.91
2022-09-28T04:10:17.525Z,3.90
2022-09-28T04:12:46.110Z,3.91
2022-09-28T04:15:15.883Z,3.92
2022-09-28T04:17:45.016Z,3.93
2022-09-28T04:20:28.325Z,3.91
2022-09-28T04:23:03.043Z,3.90
2022-09-28T04:25:30.813Z,3.89
2022-09-28T04:28:17.528Z,3.82
2022-09-28T04:30:47.544Z,3.75
2022-09-28T04:33:15.497Z,3.72
2022-09-28T04:35:43.411Z,3.71
2022-09-28T04:38:11.236Z,3.74
2022-09-28T04:40:39.438Z,3.76
2022-09-28T04:43:08.131Z,3.81
2022-09-28T04:45:36.080Z,3.85
2022-09-28T04:48:09.594Z,3.91
2022-09-28T04:51:04.158Z,3.98
2022-09-28T04:53:32.286Z,4.02
2022-09-28T04:56:12.716Z,4.09
2022-09-28T04:58:41.670Z,4.16
2022-09-28T05:01:16.195Z,4.21
2022-09-28T05:04:16.368Z,4.30
2022-09-28T05:07:04.805Z,4.38
2022-09-28T05:09:36.361Z,4.44
2022-09-28T05:12:06.316Z,4.48
2022-09-28T05:14:34.121Z,4.54
2022-09-28T05:17:02.734Z,4.62
2022-09-28T05:19:50.952Z,4.72
2022-09-28T05:22:19.035Z,4.83
2022-09-28T05:24:47.930Z,4.96
2022-09-28T05:27:16.008Z,5.02
2022-09-28T05:29:46.918Z,5.09
2022-09-28T05:32:33.933Z,5.18
2022-09-28T05:35:20.547Z,5.25
2022-09-28T05:37:49.663Z,5.35
2022-09-28T05:40:17.704Z,5.43
2022-09-28T05:42:45.714Z,5.46
2022-09-28T05:45:14.922Z,5.50
2022-09-28T05:47:46.257Z,5.57
2022-09-28T05:50:17.295Z,5.65
2022-09-28T05:52:45.161Z,5.79
2022-09-28T05:55:14.385Z,5.91
2022-09-28T05:57:42.841Z,6.01
2022-09-28T06:00:11.673Z,6.09
2022-09-28T06:02:42.723Z,6.17
2022-09-28T06:05:13.127Z,6.28
2022-09-28T06:07:41.031Z,6.33
2022-09-28T06:10:11.238Z,6.35
2022-09-28T06:12:43.531Z,6.42
2022-09-28T06:15:17.574Z,6.47
2022-09-28T06:17:47.217Z,6.53
2022-09-28T06:20:36.107Z,6.54
2022-09-28T06:23:14.879Z,6.51
2022-09-28T06:25:42.798Z,6.53
2022-09-28T06:28:13.761Z,6.63
2022-09-28T06:30:43.685Z,6.74
2022-09-28T06:33:15.108Z,6.86
2022-09-28T06:35:43.206Z,6.94
2022-09-28T06:38:11.786Z,7.01
2022-09-28T06:40:39.718Z,7.10
2022-09-28T06:43:11.346Z,7.20
2022-09-28T06:45:58.021Z,7.30
2022-09-28T06:48:45.299Z,7.36
2022-09-28T06:51:16.610Z,7.48
2022-09-28T06:54:07.222Z,7.59
2022-09-28T06:56:41.329Z,7.75
2022-09-28T06:59:09.085Z,7.87
2022-09-28T07:01:38.288Z,7.96
2022-09-28T07:04:10.311Z,8.12
2022-09-28T07:06:57.529Z,8.35
2022-09-28T07:09:37.274Z,8.51
2022-09-28T07:12:13.257Z,8.66
2022-09-28T07:15:02.439Z,8.80
2022-09-28T07:17:32.159Z,8.89
2022-09-28T07:20:15.783Z,8.97
2022-09-28T07:22:48.463Z,9.08
2022-09-28T07:25:21.492Z,9.21
2022-09-28T07:28:12.247Z,9.41
2022-09-28T07:30:58.558Z,9.62
2022-09-28T07:33:47.619Z,9.89
2022-09-28T07:36:21.033Z,10.18
2022-09-28T07:38:49.850Z,10.39
2022-09-28T07:41:22.956Z,10.54
2022-09-28T07:43:52.973Z,10.70
2022-09-28T07:46:22.414Z,10.76
2022-09-28T07:48:59.518Z,10.85
2022-09-28T07:51:46.083Z,10.97
2022-09-28T07:54:34.208Z,10.98
2022-09-28T07:57:15.339Z,11.06
2022-09-28T08:00:07.558Z,11.06
2022-09-28T08:02:48.414Z,11.10
2022-09-28T08:05:22.094Z,11.12
2022-09-28T08:07:50.077Z,11.21
2022-09-28T08:10:19.615Z,11.32
2022-09-28T08:12:47.340Z,11.42
2022-09-28T08:15:27.349Z,11.48
2022-09-28T08:18:08.364Z,11.50
2022-09-28T08:20:55.797Z,11.46
2022-09-28T08:23:24.787Z,11.43
2022-09-28T08:25:54.283Z,11.35
2022-09-28T08:28:24.318Z,11.36
2022-09-28T08:30:55.703Z,11.39
2022-09-28T08:33:32.452Z,11.40
2022-09-28T08:36:19.003Z,11.46
2022-09-28T08:39:15.859Z,11.42
2022-09-28T08:42:32.418Z,11.40
2022-09-28T08:45:23.106Z,11.46
2022-09-28T08:48:52.237Z,11.61
2022-09-28T08:51:55.224Z,11.72
2022-09-28T08:54:57.582Z,11.84
2022-09-28T08:57:45.340Z,11.87
2022-09-28T09:00:35.601Z,11.90
2022-09-28T09:03:12.372Z,11.96
2022-09-28T09:05:56.220Z,11.96
2022-09-28T09:08:50.280Z,11.96
2022-09-28T09:11:25.706Z,12.01
2022-09-28T09:14:19.387Z,12.12
2022-09-28T09:17:00.547Z,12.22
2022-09-28T09:19:59.314Z,12.25
2022-09-28T09:23:01.550Z,12.35
2022-09-28T09:25:42.066Z,12.46
2022-09-28T09:28:43.821Z,12.55
2022-09-28T09:31:11.728Z,12.66
2022-09-28T09:33:59.712Z,12.78
2022-09-28T09:37:23.219Z,12.99
2022-09-28T09:41:00.048Z,13.19
2022-09-28T09:43:46.658Z,13.38
2022-09-28T09:46:54.177Z,13.35
2022-09-28T09:49:44.003Z,13.26
2022-09-28T09:52:44.411Z,13.31
2022-09-28T09:55:30.453Z,13.47
2022-09-28T09:58:30.519Z,13.56
2022-09-28T10:01:32.498Z,13.50
2022-09-28T10:04:40.957Z,13.51
2022-09-28T10:07:41.374Z,13.65
2022-09-28T10:10:18.235Z,13.95
2022-09-28T10:12:51.288Z,14.21
2022-09-28T10:15:25.771Z,14.43
2022-09-28T10:18:11.145Z,14.75
2022-09-28T10:20:57.532Z,15.10
2022-09-28T10:23:40.947Z,15.39
2022-09-28T10:26:15.258Z,15.48
2022-09-28T10:28:50.639Z,15.48
2022-09-28T10:31:42.107Z,15.48
2022-09-28T10:34:30.447Z,15.46
2022-09-28T10:37:06.614Z,15.50
2022-09-28T10:39:56.218Z,15.54
2022-09-28T10:42:33.687Z,15.61
2022-09-28T10:45:21.543Z,15.69
2022-09-28T10:47:50.191Z,15.64
2022-09-28T10:50:23.868Z,15.59
2022-09-28T10:53:20.609Z,15.46
2022-09-28T10:56:22.667Z,15.31
2022-09-28T10:58:55.917Z,15.22
2022-09-28T11:01:34.619Z,15.21
2022-09-28T11:04:06.825Z,15.26
2022-09-28T11:06:41.966Z,15.30
2022-09-28T11:09:29.805Z,15.24
2022-09-28T11:12:03.361Z,15.10
2022-09-28T11:14:42.619Z,14.96
2022-09-28T11:17:32.734Z,14.80
2022-09-28T11:20:27.001Z,14.77
2022-09-28T11:22:59.271Z,14.86
2022-09-28T11:25:31.445Z,14.82
2022-09-28T11:28:04.707Z,14.86
2022-09-28T11:30:50.267Z,15.01
2022-09-28T11:33:46.980Z,15.07
2022-09-28T11:37:05.219Z,15.12
2022-09-28T11:39:44.398Z,15.17
2022-09-28T11:42:29.682Z,15.23
2022-09-28T11:45:36.680Z,15.35
2022-09-28T11:48:08.317Z,15.41
2022-09-28T11:50:54.854Z,15.38
2022-09-28T11:53:31.729Z,15.28
2022-09-28T11:56:27.167Z,15.25
2022-09-28T11:59:00.096Z,15.21
2022-09-28T12:01:51.814Z,15.13
2022-09-28T12:05:09.399Z,15.06
2022-09-28T12:07:43.893Z,15.07
2022-09-28T12:10:30.398Z,15.07
2022-09-28T12:13:03.650Z,15.04
2022-09-28T12:16:11.555Z,14.97
2022-09-28T12:18:54.506Z,14.81
2022-09-28T12:21:33.566Z,14.70
2022-09-28T12:24:18.653Z,14.70
2022-09-28T12:26:56.626Z,14.64
2022-09-28T12:29:34.044Z,14.58
2022-09-28T12:32:25.073Z,14.48
2022-09-28T12:34:53.288Z,14.37
2022-09-28T12:37:33.333Z,14.28
2022-09-28T12:40:23.137Z,14.24
2022-09-28T12:43:03.552Z,14.21
2022-09-28T12:46:11.859Z,14.11
2022-09-28T12:50:20.032Z,14.02
2022-09-28T12:52:24.938Z,13.90
2022-09-28T12:55:08.227Z,13.81
2022-09-28T12:57:44.953Z,13.76
2022-09-28T13:00:25.308Z,13.71
2022-09-28T13:03:23.804Z,13.63
2022-09-28T13:06:13.087Z,13.53
2022-09-28T13:08:50.030Z,13.42
2022-09-28T13:11:36.187Z,13.34
2022-09-28T13:14:04.003Z,13.33
2022-09-28T13:17:00.885Z,13.29
2022-09-28T13:19:45.417Z,13.16
2022-09-28T13:22:28.507Z,13.06
2022-09-28T13:25:02.181Z,12.87
2022-09-28T13:27:37.194Z,12.65
2022-09-28T13:30:07.941Z,12.43
2022-09-28T13:32:38.972Z,12.27
2022-09-28T13:35:07.129Z,12.11
2022-09-28T13:37:34.998Z,11.91
2022-09-28T13:40:06.373Z,11.75
2022-09-28T13:42:52.701Z,11.63
2022-09-28T13:45:20.405Z,11.49
2022-09-28T13:48:04.189Z,11.37
2022-09-28T13:51:14.374Z,11.25
2022-09-28T13:54:07.008Z,11.11
2022-09-28T13:57:19.718Z,11.01
2022-09-28T14:00:01.596Z,10.85
2022-09-28T14:02:46.006Z,10.78
2022-09-28T14:05:22.829Z,10.71
2022-09-28T14:08:18.212Z,10.63
2022-09-28T14:11:15.201Z,10.58
2022-09-28T14:13:42.950Z,10.51
2022-09-28T14:16:27.591Z,10.49
2022-09-28T14:19:07.406Z,10.45
2022-09-28T14:21:51.230Z,10.34
2022-09-28T14:24:28.200Z,10.28
2022-09-28T14:27:32.666Z,10.17
2022-09-28T14:30:16.383Z,10.09
2022-09-28T14:32:59.775Z,10.06
2022-09-28T14:35:43.718Z,9.97
2022-09-28T14:38:40.841Z,9.92
2022-09-28T14:41:25.910Z,9.96
2022-09-28T14:43:57.736Z,9.95
2022-09-28T14:46:25.614Z,9.93
2022-09-28T14:48:54.665Z,9.97
2022-09-28T14:51:33.119Z,10.06
2022-09-28T14:54:10.691Z,10.08
2022-09-28T14:56:44.925Z,10.09
2022-09-28T14:59:26.493Z,10.12
2022-09-28T15:02:01.254Z,10.08
2022-09-28T15:04:30.882Z,9.96
2022-09-28T15:06:59.408Z,9.93
2022-09-28T15:09:32.985Z,9.92
2022-09-28T15:12:21.919Z,9.91
2022-09-28T15:15:04.359Z,9.96
2022-09-28T15:17:40.203Z,9.98
2022-09-28T15:20:20.322Z,10.04
2022-09-28T15:22:50.470Z,10.11
2022-09-28T15:25:24.541Z,10.15
2022-09-28T15:27:58.001Z,10.13
2022-09-28T15:30:28.121Z,10.13
2022-09-28T15:33:17.396Z,10.19
2022-09-28T15:35:59.408Z,10.16
2022-09-28T15:38:28.009Z,10.16
2022-09-28T15:40:56.196Z,10.18
2022-09-28T15:43:30.885Z,10.18
2022-09-28T15:46:06.485Z,10.16
2022-09-28T15:48:46.257Z,10.14
2022-09-28T15:51:14.233Z,10.11
2022-09-28T15:53:51.426Z,10.07
2022-09-28T15:56:19.301Z,10.03
2022-09-28T15:59:11.073Z,10.01
2022-09-28T16:01:40.189Z,9.96
2022-09-28T16:04:38.786Z,9.91
2022-09-28T16:07:10.401Z,9.78
2022-09-28T16:10:17.271Z,9.75
2022-09-28T16:12:48.629Z,9.64
2022-09-28T16:15:23.657Z,9.58
2022-09-28T16:18:22.158Z,9.57
2022-09-28T16:20:53.037Z,9.51
2022-09-28T16:23:30.169Z,9.47
2022-09-28T16:26:02.848Z,9.45
2022-09-28T16:28:34.570Z,9.48
2022-09-28T16:31:05.291Z,9.52
2022-09-28T16:33:59.147Z,9.49
2022-09-28T16:36:38.959Z,9.51
2022-09-28T16:39:06.759Z,9.51
2022-09-28T16:41:34.533Z,9.49
2022-09-28T16:44:02.461Z,9.48
2022-09-28T16:46:37.637Z,9.49
2022-09-28T16:49:07.018Z,9.50
2022-09-28T16:51:34.826Z,9.46
2022-09-28T16:54:35.755Z,9.43
2022-09-28T16:57:05.572Z,9.41
2022-09-28T16:59:34.298Z,9.41
2022-09-28T17:02:07.740Z,9.35
2022-09-28T17:04:35.980Z,9.32
2022-09-28T17:07:03.833Z,9.29
2022-09-28T17:09:31.651Z,9.27
2022-09-28T17:11:59.508Z,9.28
2022-09-28T17:14:27.312Z,9.30
2022-09-28T17:17:08.295Z,9.33
2022-09-28T17:19:38.365Z,9.30
2022-09-28T17:22:08.044Z,9.27
2022-09-28T17:24:36.963Z,9.23
2022-09-28T17:27:06.970Z,9.19
2022-09-28T17:29:34.754Z,9.12
2022-09-28T17:32:02.908Z,9.06
2022-09-28T17:34:30.681Z,9.07
2022-09-28T17:36:58.450Z,9.06
2022-09-28T17:39:26.192Z,9.06
2022-09-28T17:41:54.071Z,9.04
2022-09-28T17:44:22.115Z,9.03
2022-09-28T17:46:51.117Z,9.06
2022-09-28T17:49:19.310Z,9.08
2022-09-28T17:51:47.127Z,9.11
2022-09-28T17:54:17.027Z,9.12
2022-09-28T17:56:46.295Z,9.16
2022-09-28T17:59:17.818Z,9.21
2022-09-28T18:01:45.865Z,9.24
2022-09-28T18:04:39.685Z,9.28
2022-09-28T18:07:04.423Z,9.28
2022-09-28T18:09:32.186Z,9.27
2022-09-28T18:12:04.222Z,9.24
2022-09-28T18:14:32.552Z,9.22
2022-09-28T18:17:00.518Z,9.23
2022-09-28T18:19:32.188Z,9.27
2022-09-28T18:22:01.619Z,9.29
2022-09-28T18:24:32.567Z,9.28
2022-09-28T18:27:00.795Z,9.26
2022-09-28T18:29:33.422Z,9.26
2022-09-28T18:32:03.400Z,9.24
2022-09-28T18:34:31.436Z,9.25
2022-09-28T18:36:59.210Z,9.25
2022-09-28T18:39:27.128Z,9.28
2022-09-28T18:41:55.081Z,9.27
2022-09-28T18:44:22.926Z,9.26
2022-09-28T18:46:51.666Z,9.29
2022-09-28T18:49:19.699Z,9.31
2022-09-28T18:51:47.978Z,9.27
2022-09-28T18:54:17.194Z,9.21
2022-09-28T18:56:45.550Z,9.16
2022-09-28T18:59:14.342Z,9.12
2022-09-28T19:01:43.453Z,9.10
2022-09-28T19:04:13.014Z,9.09
2022-09-28T19:06:43.255Z,9.09
2022-09-28T19:09:11.848Z,9.06
2022-09-28T19:11:39.868Z,9.04
2022-09-28T19:14:11.143Z,9.01
2022-09-28T19:16:39.126Z,8.99
2022-09-28T19:19:07.317Z,8.95
2022-09-28T19:21:35.206Z,8.94
2022-09-28T19:24:04.115Z,8.93
2022-09-28T19:26:33.047Z,8.93
2022-09-28T19:29:02.926Z,8.86
2022-09-28T19:31:32.038Z,8.79
2022-09-28T19:33:59.968Z,8.72
2022-09-28T19:36:28.789Z,8.66
2022-09-28T19:38:58.227Z,8.64
2022-09-28T19:41:43.309Z,8.67
2022-09-28T19:44:15.882Z,8.68
2022-09-28T19:46:44.008Z,8.66
2022-09-28T19:49:14.702Z,8.62
2022-09-28T19:52:01.592Z,8.63
2022-09-28T19:54:36.312Z,8.61
2022-09-28T19:57:08.002Z,8.55
2022-09-28T19:59:37.465Z,8.47
2022-09-28T20:02:07.997Z,8.43
2022-09-28T20:04:35.887Z,8.42
2022-09-28T20:07:04.532Z,8.43
2022-09-28T20:09:33.118Z,8.45
2022-09-28T20:12:01.294Z,8.42
2022-09-28T20:14:33.096Z,8.37
2022-09-28T20:17:04.285Z,8.36
2022-09-28T20:19:32.866Z,8.35
2022-09-28T20:22:02.981Z,8.34
2022-09-28T20:24:32.704Z,8.36
2022-09-28T20:27:01.558Z,8.43
2022-09-28T20:29:31.874Z,8.48
2022-09-28T20:32:00.454Z,8.50
2022-09-28T20:34:28.430Z,8.50
2022-09-28T20:36:56.238Z,8.52
2022-09-28T20:39:25.290Z,8.50
2022-09-28T20:41:53.694Z,8.47
2022-09-28T20:44:21.551Z,8.47
2022-09-28T20:46:51.345Z,8.46
2022-09-28T20:49:19.218Z,8.41
2022-09-28T20:51:47.124Z,8.37
2022-09-28T20:54:15.178Z,8.34
2022-09-28T20:56:43.262Z,8.33
2022-09-28T20:59:12.322Z,8.29
2022-09-28T21:01:40.661Z,8.27
2022-09-28T21:04:10.199Z,8.24
2022-09-28T21:06:40.550Z,8.21
2022-09-28T21:09:10.688Z,8.17
2022-09-28T21:11:39.581Z,8.14
2022-09-28T21:14:09.675Z,8.12
2022-09-28T21:16:37.889Z,8.09
2022-09-28T21:19:05.796Z,8.07
2022-09-28T21:21:33.765Z,8.05
2022-09-28T21:24:02.522Z,8.02
2022-09-28T21:26:31.352Z,7.96
2022-09-28T21:29:07.009Z,7.91
2022-09-28T21:31:46.033Z,7.88
2022-09-28T21:34:19.493Z,7.85
2022-09-28T21:36:51.186Z,7.82
2022-09-28T21:39:20.360Z,7.77
2022-09-28T21:41:48.606Z,7.75
2022-09-28T21:44:16.581Z,7.71
2022-09-28T21:46:44.526Z,7.67
2022-09-28T21:49:14.348Z,7.62
2022-09-28T21:51:42.235Z,7.56
2022-09-28T21:54:10.144Z,7.54
2022-09-28T21:56:37.954Z,7.53
2022-09-28T21:59:05.701Z,7.55
2022-09-28T22:01:33.595Z,7.56
2022-09-28T22:04:01.482Z,7.58
2022-09-28T22:06:29.295Z,7.57
2022-09-28T22:08:58.028Z,7.59
2022-09-28T22:11:28.194Z,7.60
2022-09-28T22:13:58.874Z,7.61
2022-09-28T22:16:30.092Z,7.61
2022-09-28T22:18:59.662Z,7.58
2022-09-28T22:21:35.095Z,7.58
2022-09-28T22:24:05.305Z,7.58
2022-09-28T22:26:36.282Z,7.56
2022-09-28T22:29:07.253Z,7.56
2022-09-28T22:31:40.238Z,7.55
2022-09-28T22:34:09.205Z,7.55
2022-09-28T22:36:37.705Z,7.54
2022-09-28T22:39:06.306Z,7.52
2022-09-28T22:41:34.802Z,7.49
2022-09-28T22:44:02.584Z,7.47
2022-09-28T22:46:33.351Z,7.45
2022-09-28T22:49:01.864Z,7.45
2022-09-28T22:51:30.355Z,7.45
2022-09-28T22:53:59.032Z,7.43
2022-09-28T22:56:26.933Z,7.41
2022-09-28T22:58:54.792Z,7.42
2022-09-28T23:01:29.160Z,7.45
2022-09-28T23:03:57.954Z,7.47
2022-09-28T23:06:29.153Z,7.49
2022-09-28T23:08:57.426Z,7.52
2022-09-28T23:11:25.276Z,7.57
2022-09-28T23:13:56.000Z,7.62
2022-09-28T23:16:25.828Z,7.66
2022-09-28T23:18:55.216Z,7.71
2022-09-28T23:21:25.406Z,7.74
2022-09-28T23:24:00.906Z,7.76
2022-09-28T23:26:34.491Z,7.81
2022-09-28T23:29:03.240Z,7.86
2022-09-28T23:31:32.878Z,7.89
2022-09-28T23:34:02.999Z,7.90
2022-09-28T23:36:31.936Z,7.91
2022-09-28T23:38:59.919Z,7.93
2022-09-28T23:41:27.946Z,7.95
2022-09-28T23:43:55.974Z,7.94
2022-09-28T23:46:24.458Z,7.94
2022-09-28T23:48:52.497Z,7.94
2022-09-28T23:51:20.324Z,7.95
2022-09-28T23:53:48.196Z,7.95
2022-09-28T23:56:16.123Z,7.96
2022-09-28T23:58:43.993Z,7.96
